sensor_id;sensor_type;location;lat;lon;timestamp;P1;durP1;ratioP1;P2;durP2;ratioP2
70549;SDS011;58101;48.658;2.328;2023-12-22T00:01:14;17.35;;;1.60;;
70549;SDS011;58101;48.658;2.328;2023-12-22T00:03:41;12.15;;;1.67;;
70549;SDS011;58101;48.658;2.328;2023-12-22T00:06:07;10.75;;;1.42;;
70549;SDS011;58101;48.658;2.328;2023-12-22T00:08:32;10.60;;;1.70;;
70549;SDS011;58101;48.658;2.328;2023-12-22T00:10:58;18.75;;;2.03;;
70549;SDS011;58101;48.658;2.328;2023-12-22T00:13:24;14.38;;;2.10;;
70549;SDS011;58101;48.658;2.328;2023-12-22T00:15:49;17.52;;;2.08;;
70549;SDS011;58101;48.658;2.328;2023-12-22T00:18:15;11.63;;;1.60;;
70549;SDS011;58101;48.658;2.328;2023-12-22T00:20:41;18.27;;;1.80;;
70549;SDS011;58101;48.658;2.328;2023-12-22T00:23:06;15.98;;;1.90;;
70549;SDS011;58101;48.658;2.328;2023-12-22T00:25:32;13.90;;;1.95;;
70549;SDS011;58101;48.658;2.328;2023-12-22T00:27:57;17.88;;;2.72;;
70549;SDS011;58101;48.658;2.328;2023-12-22T00:30:23;10.05;;;1.75;;
70549;SDS011;58101;48.658;2.328;2023-12-22T00:32:49;13.23;;;1.73;;
70549;SDS011;58101;48.658;2.328;2023-12-22T00:35:15;17.52;;;2.08;;
70549;SDS011;58101;48.658;2.328;2023-12-22T00:37:40;13.18;;;1.98;;
70549;SDS011;58101;48.658;2.328;2023-12-22T00:40:06;16.50;;;2.17;;
70549;SDS011;58101;48.658;2.328;2023-12-22T00:42:34;15.45;;;1.60;;
70549;SDS011;58101;48.658;2.328;2023-12-22T00:45:00;14.32;;;2.03;;
70549;SDS011;58101;48.658;2.328;2023-12-22T00:47:25;17.13;;;1.95;;
70549;SDS011;58101;48.658;2.328;2023-12-22T00:49:51;11.50;;;1.65;;
70549;SDS011;58101;48.658;2.328;2023-12-22T00:52:16;14.63;;;1.80;;
70549;SDS011;58101;48.658;2.328;2023-12-22T00:54:42;21.45;;;1.83;;
70549;SDS011;58101;48.658;2.328;2023-12-22T00:57:08;12.02;;;1.58;;
70549;SDS011;58101;48.658;2.328;2023-12-22T00:59:33;14.00;;;2.90;;
70549;SDS011;58101;48.658;2.328;2023-12-22T01:01:59;18.65;;;2.22;;
70549;SDS011;58101;48.658;2.328;2023-12-22T01:04:24;13.88;;;1.83;;
70549;SDS011;58101;48.658;2.328;2023-12-22T01:06:50;12.77;;;1.77;;
70549;SDS011;58101;48.658;2.328;2023-12-22T01:09:16;14.60;;;1.83;;
70549;SDS011;58101;48.658;2.328;2023-12-22T01:11:44;10.65;;;1.98;;
70549;SDS011;58101;48.658;2.328;2023-12-22T01:14:10;11.43;;;1.80;;
70549;SDS011;58101;48.658;2.328;2023-12-22T01:16:38;12.50;;;1.90;;
70549;SDS011;58101;48.658;2.328;2023-12-22T01:19:04;13.00;;;1.60;;
70549;SDS011;58101;48.658;2.328;2023-12-22T01:21:30;12.25;;;1.75;;
70549;SDS011;58101;48.658;2.328;2023-12-22T01:23:56;13.93;;;1.77;;
70549;SDS011;58101;48.658;2.328;2023-12-22T01:26:21;15.75;;;2.20;;
70549;SDS011;58101;48.658;2.328;2023-12-22T01:28:47;13.38;;;1.85;;
70549;SDS011;58101;48.658;2.328;2023-12-22T01:31:12;12.60;;;1.65;;
70549;SDS011;58101;48.658;2.328;2023-12-22T01:33:38;12.27;;;1.58;;
70549;SDS011;58101;48.658;2.328;2023-12-22T01:36:04;14.10;;;1.80;;
70549;SDS011;58101;48.658;2.328;2023-12-22T01:38:30;10.20;;;1.70;;
70549;SDS011;58101;48.658;2.328;2023-12-22T01:40:55;15.00;;;1.38;;
70549;SDS011;58101;48.658;2.328;2023-12-22T01:43:21;14.40;;;1.80;;
70549;SDS011;58101;48.658;2.328;2023-12-22T01:45:56;8.63;;;1.40;;
70549;SDS011;58101;48.658;2.328;2023-12-22T01:48:23;13.52;;;1.70;;
70549;SDS011;58101;48.658;2.328;2023-12-22T01:53:17;11.88;;;1.30;;
70549;SDS011;58101;48.658;2.328;2023-12-22T01:55:45;8.27;;;1.48;;
70549;SDS011;58101;48.658;2.328;2023-12-22T01:58:11;11.98;;;1.90;;
70549;SDS011;58101;48.658;2.328;2023-12-22T02:00:37;10.35;;;1.52;;
70549;SDS011;58101;48.658;2.328;2023-12-22T02:03:03;13.38;;;1.58;;
70549;SDS011;58101;48.658;2.328;2023-12-22T02:05:28;8.13;;;1.30;;
70549;SDS011;58101;48.658;2.328;2023-12-22T02:07:54;13.20;;;2.00;;
70549;SDS011;58101;48.658;2.328;2023-12-22T02:10:20;10.95;;;1.27;;
70549;SDS011;58101;48.658;2.328;2023-12-22T02:12:46;11.63;;;1.67;;
70549;SDS011;58101;48.658;2.328;2023-12-22T02:15:12;11.73;;;1.42;;
70549;SDS011;58101;48.658;2.328;2023-12-22T02:20:10;8.50;;;1.50;;
70549;SDS011;58101;48.658;2.328;2023-12-22T02:22:36;10.27;;;1.40;;
70549;SDS011;58101;48.658;2.328;2023-12-22T02:25:02;9.52;;;1.52;;
70549;SDS011;58101;48.658;2.328;2023-12-22T02:33:04;9.07;;;1.30;;
70549;SDS011;58101;48.658;2.328;2023-12-22T02:35:32;8.10;;;1.45;;
70549;SDS011;58101;48.658;2.328;2023-12-22T02:38:01;11.07;;;1.42;;
70549;SDS011;58101;48.658;2.328;2023-12-22T02:40:28;11.13;;;1.25;;
70549;SDS011;58101;48.658;2.328;2023-12-22T02:42:54;12.77;;;1.42;;
70549;SDS011;58101;48.658;2.328;2023-12-22T02:45:20;9.00;;;1.25;;
70549;SDS011;58101;48.658;2.328;2023-12-22T02:47:46;11.88;;;1.80;;
70549;SDS011;58101;48.658;2.328;2023-12-22T02:50:15;10.25;;;1.40;;
70549;SDS011;58101;48.658;2.328;2023-12-22T02:52:41;12.10;;;1.42;;
70549;SDS011;58101;48.658;2.328;2023-12-22T02:55:07;11.25;;;2.03;;
70549;SDS011;58101;48.658;2.328;2023-12-22T02:57:33;7.85;;;1.20;;
70549;SDS011;58101;48.658;2.328;2023-12-22T02:59:59;11.88;;;1.48;;
70549;SDS011;58101;48.658;2.328;2023-12-22T03:02:25;10.27;;;1.73;;
70549;SDS011;58101;48.658;2.328;2023-12-22T03:04:51;8.32;;;1.75;;
70549;SDS011;58101;48.658;2.328;2023-12-22T03:07:16;8.40;;;1.48;;
70549;SDS011;58101;48.658;2.328;2023-12-22T03:09:42;14.35;;;1.42;;
70549;SDS011;58101;48.658;2.328;2023-12-22T03:12:10;10.45;;;1.65;;
70549;SDS011;58101;48.658;2.328;2023-12-22T03:14:36;10.70;;;1.23;;
70549;SDS011;58101;48.658;2.328;2023-12-22T03:17:02;14.75;;;1.73;;
70549;SDS011;58101;48.658;2.328;2023-12-22T03:19:29;12.05;;;2.30;;
70549;SDS011;58101;48.658;2.328;2023-12-22T03:21:55;11.82;;;1.60;;
70549;SDS011;58101;48.658;2.328;2023-12-22T03:24:24;8.05;;;1.50;;
70549;SDS011;58101;48.658;2.328;2023-12-22T03:26:50;11.48;;;1.40;;
70549;SDS011;58101;48.658;2.328;2023-12-22T03:29:16;10.55;;;1.38;;
70549;SDS011;58101;48.658;2.328;2023-12-22T03:31:42;10.95;;;1.67;;
70549;SDS011;58101;48.658;2.328;2023-12-22T03:34:08;12.63;;;1.45;;
70549;SDS011;58101;48.658;2.328;2023-12-22T03:36:34;12.80;;;1.38;;
70549;SDS011;58101;48.658;2.328;2023-12-22T03:39:00;13.70;;;1.73;;
70549;SDS011;58101;48.658;2.328;2023-12-22T03:41:25;14.05;;;1.48;;
70549;SDS011;58101;48.658;2.328;2023-12-22T03:43:51;10.32;;;1.58;;
70549;SDS011;58101;48.658;2.328;2023-12-22T03:46:17;13.20;;;1.52;;
70549;SDS011;58101;48.658;2.328;2023-12-22T03:48:46;13.07;;;1.80;;
70549;SDS011;58101;48.658;2.328;2023-12-22T03:51:11;12.20;;;1.60;;
70549;SDS011;58101;48.658;2.328;2023-12-22T03:53:38;10.40;;;1.58;;
70549;SDS011;58101;48.658;2.328;2023-12-22T03:56:04;10.93;;;1.40;;
70549;SDS011;58101;48.658;2.328;2023-12-22T03:58:29;11.57;;;1.30;;
70549;SDS011;58101;48.658;2.328;2023-12-22T04:00:55;12.18;;;1.40;;
70549;SDS011;58101;48.658;2.328;2023-12-22T04:03:21;14.35;;;1.73;;
70549;SDS011;58101;48.658;2.328;2023-12-22T04:05:47;11.18;;;1.40;;
70549;SDS011;58101;48.658;2.328;2023-12-22T04:08:13;10.50;;;1.58;;
70549;SDS011;58101;48.658;2.328;2023-12-22T04:10:38;12.70;;;1.80;;
70549;SDS011;58101;48.658;2.328;2023-12-22T04:13:04;11.55;;;1.40;;
70549;SDS011;58101;48.658;2.328;2023-12-22T04:15:30;9.48;;;1.35;;
70549;SDS011;58101;48.658;2.328;2023-12-22T04:17:55;11.63;;;1.25;;
70549;SDS011;58101;48.658;2.328;2023-12-22T04:20:21;10.10;;;1.50;;
70549;SDS011;58101;48.658;2.328;2023-12-22T04:22:46;7.35;;;1.20;;
70549;SDS011;58101;48.658;2.328;2023-12-22T04:25:12;4.65;;;0.80;;
70549;SDS011;58101;48.658;2.328;2023-12-22T04:27:38;6.32;;;0.95;;
70549;SDS011;58101;48.658;2.328;2023-12-22T04:30:03;10.05;;;1.20;;
70549;SDS011;58101;48.658;2.328;2023-12-22T04:32:29;7.88;;;1.10;;
70549;SDS011;58101;48.658;2.328;2023-12-22T04:34:55;11.02;;;1.25;;
70549;SDS011;58101;48.658;2.328;2023-12-22T04:37:21;8.55;;;1.13;;
70549;SDS011;58101;48.658;2.328;2023-12-22T04:39:46;8.57;;;1.33;;
70549;SDS011;58101;48.658;2.328;2023-12-22T04:42:12;13.52;;;1.48;;
70549;SDS011;58101;48.658;2.328;2023-12-22T04:44:37;8.00;;;1.25;;
70549;SDS011;58101;48.658;2.328;2023-12-22T04:47:03;13.57;;;1.63;;
70549;SDS011;58101;48.658;2.328;2023-12-22T04:49:28;6.07;;;1.10;;
70549;SDS011;58101;48.658;2.328;2023-12-22T04:51:54;11.07;;;1.27;;
70549;SDS011;58101;48.658;2.328;2023-12-22T04:54:20;7.00;;;1.25;;
70549;SDS011;58101;48.658;2.328;2023-12-22T04:56:45;11.82;;;1.48;;
70549;SDS011;58101;48.658;2.328;2023-12-22T04:59:11;10.55;;;1.67;;
70549;SDS011;58101;48.658;2.328;2023-12-22T05:01:36;6.82;;;1.08;;
70549;SDS011;58101;48.658;2.328;2023-12-22T05:04:02;9.10;;;1.08;;
70549;SDS011;58101;48.658;2.328;2023-12-22T05:06:28;9.13;;;1.20;;
70549;SDS011;58101;48.658;2.328;2023-12-22T05:08:56;9.48;;;1.20;;
70549;SDS011;58101;48.658;2.328;2023-12-22T05:11:22;6.40;;;1.00;;
70549;SDS011;58101;48.658;2.328;2023-12-22T05:13:48;8.32;;;1.30;;
70549;SDS011;58101;48.658;2.328;2023-12-22T05:16:13;6.80;;;0.93;;
70549;SDS011;58101;48.658;2.328;2023-12-22T05:18:39;6.45;;;0.95;;
70549;SDS011;58101;48.658;2.328;2023-12-22T05:21:06;11.52;;;1.27;;
70549;SDS011;58101;48.658;2.328;2023-12-22T05:23:31;9.70;;;1.00;;
70549;SDS011;58101;48.658;2.328;2023-12-22T05:25:57;6.32;;;0.88;;
70549;SDS011;58101;48.658;2.328;2023-12-22T05:28:23;5.63;;;0.93;;
70549;SDS011;58101;48.658;2.328;2023-12-22T05:30:49;5.00;;;0.75;;
70549;SDS011;58101;48.658;2.328;2023-12-22T05:33:14;6.03;;;0.80;;
70549;SDS011;58101;48.658;2.328;2023-12-22T05:35:40;6.47;;;0.90;;
70549;SDS011;58101;48.658;2.328;2023-12-22T05:38:05;6.75;;;1.00;;
70549;SDS011;58101;48.658;2.328;2023-12-22T05:40:31;6.22;;;0.90;;
70549;SDS011;58101;48.658;2.328;2023-12-22T05:42:57;6.80;;;1.23;;
70549;SDS011;58101;48.658;2.328;2023-12-22T05:45:23;5.50;;;0.70;;
70549;SDS011;58101;48.658;2.328;2023-12-22T05:47:50;5.97;;;0.80;;
70549;SDS011;58101;48.658;2.328;2023-12-22T05:50:15;6.10;;;0.80;;
70549;SDS011;58101;48.658;2.328;2023-12-22T05:52:41;3.40;;;0.80;;
70549;SDS011;58101;48.658;2.328;2023-12-22T05:55:08;4.75;;;0.70;;
70549;SDS011;58101;48.658;2.328;2023-12-22T05:57:34;4.95;;;0.70;;
70549;SDS011;58101;48.658;2.328;2023-12-22T06:00:00;4.35;;;0.70;;
70549;SDS011;58101;48.658;2.328;2023-12-22T06:02:25;4.35;;;0.77;;
70549;SDS011;58101;48.658;2.328;2023-12-22T06:04:51;7.88;;;0.98;;
70549;SDS011;58101;48.658;2.328;2023-12-22T06:07:17;6.93;;;0.90;;
70549;SDS011;58101;48.658;2.328;2023-12-22T06:09:44;9.23;;;1.20;;
70549;SDS011;58101;48.658;2.328;2023-12-22T06:12:10;4.55;;;0.80;;
70549;SDS011;58101;48.658;2.328;2023-12-22T06:14:35;5.13;;;0.93;;
70549;SDS011;58101;48.658;2.328;2023-12-22T06:17:01;9.75;;;1.13;;
70549;SDS011;58101;48.658;2.328;2023-12-22T06:19:27;4.78;;;0.90;;
70549;SDS011;58101;48.658;2.328;2023-12-22T06:21:55;5.07;;;0.90;;
70549;SDS011;58101;48.658;2.328;2023-12-22T06:24:22;5.82;;;1.08;;
70549;SDS011;58101;48.658;2.328;2023-12-22T06:26:48;7.35;;;1.00;;
70549;SDS011;58101;48.658;2.328;2023-12-22T06:29:16;8.35;;;1.50;;
70549;SDS011;58101;48.658;2.328;2023-12-22T06:31:42;6.13;;;1.23;;
70549;SDS011;58101;48.658;2.328;2023-12-22T06:34:08;5.30;;;0.93;;
70549;SDS011;58101;48.658;2.328;2023-12-22T06:36:33;7.35;;;0.95;;
70549;SDS011;58101;48.658;2.328;2023-12-22T06:38:59;6.20;;;1.10;;
70549;SDS011;58101;48.658;2.328;2023-12-22T06:41:25;9.73;;;1.50;;
70549;SDS011;58101;48.658;2.328;2023-12-22T06:43:52;8.48;;;1.00;;
70549;SDS011;58101;48.658;2.328;2023-12-22T06:46:18;6.13;;;0.90;;
70549;SDS011;58101;48.658;2.328;2023-12-22T06:48:45;7.32;;;1.10;;
70549;SDS011;58101;48.658;2.328;2023-12-22T06:53:51;5.63;;;0.90;;
70549;SDS011;58101;48.658;2.328;2023-12-22T06:56:18;6.70;;;1.10;;
70549;SDS011;58101;48.658;2.328;2023-12-22T06:58:45;5.22;;;1.10;;
70549;SDS011;58101;48.658;2.328;2023-12-22T07:01:34;3.90;;;0.90;;
70549;SDS011;58101;48.658;2.328;2023-12-22T07:04:00;6.55;;;0.85;;
70549;SDS011;58101;48.658;2.328;2023-12-22T07:06:31;8.27;;;1.15;;
70549;SDS011;58101;48.658;2.328;2023-12-22T07:11:45;3.95;;;0.77;;
70549;SDS011;58101;48.658;2.328;2023-12-22T07:14:15;8.40;;;1.02;;
70549;SDS011;58101;48.658;2.328;2023-12-22T07:16:41;7.00;;;1.17;;
70549;SDS011;58101;48.658;2.328;2023-12-22T07:19:09;7.65;;;0.90;;
70549;SDS011;58101;48.658;2.328;2023-12-22T07:21:38;6.28;;;1.05;;
70549;SDS011;58101;48.658;2.328;2023-12-22T07:24:04;5.97;;;1.05;;
70549;SDS011;58101;48.658;2.328;2023-12-22T07:26:30;7.95;;;1.02;;
70549;SDS011;58101;48.658;2.328;2023-12-22T07:28:56;4.57;;;0.88;;
70549;SDS011;58101;48.658;2.328;2023-12-22T07:31:21;5.88;;;1.25;;
70549;SDS011;58101;48.658;2.328;2023-12-22T07:33:47;3.50;;;0.80;;
70549;SDS011;58101;48.658;2.328;2023-12-22T07:36:13;8.98;;;1.20;;
70549;SDS011;58101;48.658;2.328;2023-12-22T07:38:39;5.63;;;1.02;;
70549;SDS011;58101;48.658;2.328;2023-12-22T07:41:05;5.63;;;0.95;;
70549;SDS011;58101;48.658;2.328;2023-12-22T07:43:31;6.20;;;0.90;;
70549;SDS011;58101;48.658;2.328;2023-12-22T07:45:56;6.90;;;1.10;;
70549;SDS011;58101;48.658;2.328;2023-12-22T07:48:22;6.75;;;1.30;;
70549;SDS011;58101;48.658;2.328;2023-12-22T07:50:49;6.65;;;0.93;;
70549;SDS011;58101;48.658;2.328;2023-12-22T07:53:14;7.28;;;1.13;;
70549;SDS011;58101;48.658;2.328;2023-12-22T07:55:40;6.90;;;0.98;;
70549;SDS011;58101;48.658;2.328;2023-12-22T07:58:06;9.18;;;1.08;;
70549;SDS011;58101;48.658;2.328;2023-12-22T08:00:32;9.27;;;1.20;;
70549;SDS011;58101;48.658;2.328;2023-12-22T08:02:58;9.02;;;1.63;;
70549;SDS011;58101;48.658;2.328;2023-12-22T08:05:23;6.53;;;0.98;;
70549;SDS011;58101;48.658;2.328;2023-12-22T08:07:50;8.70;;;1.20;;
70549;SDS011;58101;48.658;2.328;2023-12-22T08:10:15;4.35;;;0.90;;
70549;SDS011;58101;48.658;2.328;2023-12-22T08:12:41;7.60;;;1.20;;
70549;SDS011;58101;48.658;2.328;2023-12-22T08:15:07;6.72;;;1.05;;
70549;SDS011;58101;48.658;2.328;2023-12-22T08:17:35;4.13;;;0.80;;
70549;SDS011;58101;48.658;2.328;2023-12-22T08:20:02;5.07;;;0.90;;
70549;SDS011;58101;48.658;2.328;2023-12-22T08:22:29;5.43;;;0.90;;
70549;SDS011;58101;48.658;2.328;2023-12-22T08:24:54;6.38;;;1.08;;
70549;SDS011;58101;48.658;2.328;2023-12-22T08:27:20;5.28;;;0.90;;
70549;SDS011;58101;48.658;2.328;2023-12-22T08:29:45;5.32;;;0.70;;
70549;SDS011;58101;48.658;2.328;2023-12-22T08:32:11;4.47;;;0.93;;
70549;SDS011;58101;48.658;2.328;2023-12-22T08:34:37;5.55;;;0.75;;
70549;SDS011;58101;48.658;2.328;2023-12-22T08:37:03;3.45;;;0.80;;
70549;SDS011;58101;48.658;2.328;2023-12-22T08:39:28;5.30;;;0.80;;
70549;SDS011;58101;48.658;2.328;2023-12-22T08:41:54;3.47;;;0.80;;
70549;SDS011;58101;48.658;2.328;2023-12-22T08:44:20;3.10;;;0.70;;
70549;SDS011;58101;48.658;2.328;2023-12-22T08:46:45;5.25;;;1.10;;
70549;SDS011;58101;48.658;2.328;2023-12-22T08:49:11;5.28;;;0.95;;
70549;SDS011;58101;48.658;2.328;2023-12-22T08:51:37;6.90;;;1.27;;
70549;SDS011;58101;48.658;2.328;2023-12-22T08:54:02;3.92;;;0.70;;
70549;SDS011;58101;48.658;2.328;2023-12-22T08:56:31;7.65;;;1.00;;
70549;SDS011;58101;48.658;2.328;2023-12-22T08:58:56;4.60;;;0.90;;
70549;SDS011;58101;48.658;2.328;2023-12-22T09:01:24;5.97;;;0.90;;
70549;SDS011;58101;48.658;2.328;2023-12-22T09:03:50;6.93;;;0.88;;
70549;SDS011;58101;48.658;2.328;2023-12-22T09:06:18;6.03;;;0.82;;
70549;SDS011;58101;48.658;2.328;2023-12-22T09:08:44;5.60;;;0.80;;
70549;SDS011;58101;48.658;2.328;2023-12-22T09:11:15;6.30;;;1.00;;
70549;SDS011;58101;48.658;2.328;2023-12-22T09:13:43;4.55;;;0.95;;
70549;SDS011;58101;48.658;2.328;2023-12-22T09:16:09;4.22;;;0.90;;
70549;SDS011;58101;48.658;2.328;2023-12-22T09:18:35;4.40;;;0.80;;
70549;SDS011;58101;48.658;2.328;2023-12-22T09:21:01;6.30;;;1.10;;
70549;SDS011;58101;48.658;2.328;2023-12-22T09:23:30;9.38;;;1.30;;
70549;SDS011;58101;48.658;2.328;2023-12-22T09:25:56;5.00;;;0.90;;
70549;SDS011;58101;48.658;2.328;2023-12-22T09:28:22;3.70;;;0.75;;
70549;SDS011;58101;48.658;2.328;2023-12-22T09:30:48;7.07;;;1.13;;
70549;SDS011;58101;48.658;2.328;2023-12-22T09:33:16;5.78;;;1.27;;
70549;SDS011;58101;48.658;2.328;2023-12-22T09:35:41;7.63;;;1.10;;
70549;SDS011;58101;48.658;2.328;2023-12-22T09:38:08;5.57;;;0.98;;
70549;SDS011;58101;48.658;2.328;2023-12-22T09:40:39;10.52;;;1.55;;
70549;SDS011;58101;48.658;2.328;2023-12-22T09:43:06;8.43;;;1.92;;
70549;SDS011;58101;48.658;2.328;2023-12-22T09:45:33;14.27;;;4.70;;
70549;SDS011;58101;48.658;2.328;2023-12-22T09:48:02;8.45;;;2.33;;
70549;SDS011;58101;48.658;2.328;2023-12-22T09:50:30;10.13;;;2.80;;
70549;SDS011;58101;48.658;2.328;2023-12-22T09:57:48;7.25;;;1.40;;
70549;SDS011;58101;48.658;2.328;2023-12-22T10:00:15;10.10;;;1.30;;
70549;SDS011;58101;48.658;2.328;2023-12-22T10:02:42;6.03;;;0.93;;
70549;SDS011;58101;48.658;2.328;2023-12-22T10:05:11;4.30;;;0.98;;
70549;SDS011;58101;48.658;2.328;2023-12-22T10:07:46;6.45;;;1.00;;
70549;SDS011;58101;48.658;2.328;2023-12-22T10:10:12;5.15;;;0.90;;
70549;SDS011;58101;48.658;2.328;2023-12-22T10:12:40;9.63;;;1.38;;
70549;SDS011;58101;48.658;2.328;2023-12-22T10:15:09;6.18;;;0.95;;
70549;SDS011;58101;48.658;2.328;2023-12-22T10:17:37;6.93;;;0.90;;
70549;SDS011;58101;48.658;2.328;2023-12-22T10:20:03;8.10;;;0.90;;
70549;SDS011;58101;48.658;2.328;2023-12-22T10:22:29;9.38;;;1.00;;
70549;SDS011;58101;48.658;2.328;2023-12-22T10:24:55;6.40;;;1.00;;
70549;SDS011;58101;48.658;2.328;2023-12-22T10:27:20;3.83;;;0.95;;
70549;SDS011;58101;48.658;2.328;2023-12-22T10:29:58;10.05;;;1.52;;
70549;SDS011;58101;48.658;2.328;2023-12-22T10:32:23;6.95;;;1.17;;
70549;SDS011;58101;48.658;2.328;2023-12-22T10:34:52;5.90;;;0.80;;
70549;SDS011;58101;48.658;2.328;2023-12-22T10:37:18;8.82;;;1.23;;
70549;SDS011;58101;48.658;2.328;2023-12-22T10:39:46;5.05;;;0.90;;
70549;SDS011;58101;48.658;2.328;2023-12-22T10:42:17;6.88;;;1.20;;
70549;SDS011;58101;48.658;2.328;2023-12-22T10:44:42;5.38;;;1.25;;
70549;SDS011;58101;48.658;2.328;2023-12-22T10:47:08;8.10;;;1.60;;
70549;SDS011;58101;48.658;2.328;2023-12-22T10:49:34;6.50;;;1.13;;
70549;SDS011;58101;48.658;2.328;2023-12-22T10:52:02;8.45;;;1.10;;
70549;SDS011;58101;48.658;2.328;2023-12-22T10:54:27;4.43;;;1.00;;
70549;SDS011;58101;48.658;2.328;2023-12-22T10:56:58;9.57;;;1.70;;
70549;SDS011;58101;48.658;2.328;2023-12-22T10:59:27;5.63;;;1.02;;
70549;SDS011;58101;48.658;2.328;2023-12-22T11:01:56;6.82;;;1.23;;
70549;SDS011;58101;48.658;2.328;2023-12-22T11:04:22;6.43;;;1.30;;
70549;SDS011;58101;48.658;2.328;2023-12-22T11:06:54;7.35;;;1.92;;
70549;SDS011;58101;48.658;2.328;2023-12-22T11:09:23;9.05;;;1.80;;
70549;SDS011;58101;48.658;2.328;2023-12-22T11:11:51;7.85;;;1.40;;
70549;SDS011;58101;48.658;2.328;2023-12-22T11:14:17;6.40;;;1.00;;
70549;SDS011;58101;48.658;2.328;2023-12-22T11:16:44;7.55;;;1.20;;
70549;SDS011;58101;48.658;2.328;2023-12-22T11:19:13;7.22;;;1.25;;
70549;SDS011;58101;48.658;2.328;2023-12-22T11:21:40;8.60;;;1.48;;
70549;SDS011;58101;48.658;2.328;2023-12-22T11:24:07;6.40;;;1.20;;
70549;SDS011;58101;48.658;2.328;2023-12-22T11:26:33;9.57;;;2.45;;
70549;SDS011;58101;48.658;2.328;2023-12-22T11:28:59;7.85;;;1.80;;
70549;SDS011;58101;48.658;2.328;2023-12-22T11:31:28;7.00;;;1.33;;
70549;SDS011;58101;48.658;2.328;2023-12-22T11:33:57;10.10;;;1.90;;
70549;SDS011;58101;48.658;2.328;2023-12-22T11:36:24;8.93;;;1.60;;
70549;SDS011;58101;48.658;2.328;2023-12-22T11:38:50;11.32;;;2.30;;
70549;SDS011;58101;48.658;2.328;2023-12-22T11:41:20;10.48;;;2.45;;
70549;SDS011;58101;48.658;2.328;2023-12-22T11:43:49;10.02;;;2.10;;
70549;SDS011;58101;48.658;2.328;2023-12-22T11:46:16;7.80;;;1.48;;
70549;SDS011;58101;48.658;2.328;2023-12-22T11:48:52;7.78;;;1.60;;
70549;SDS011;58101;48.658;2.328;2023-12-22T11:51:18;11.00;;;2.03;;
70549;SDS011;58101;48.658;2.328;2023-12-22T11:53:44;8.13;;;1.45;;
70549;SDS011;58101;48.658;2.328;2023-12-22T11:56:11;13.40;;;2.17;;
70549;SDS011;58101;48.658;2.328;2023-12-22T12:01:18;10.32;;;1.98;;
70549;SDS011;58101;48.658;2.328;2023-12-22T12:03:48;9.93;;;1.65;;
70549;SDS011;58101;48.658;2.328;2023-12-22T12:08:50;9.10;;;1.30;;
70549;SDS011;58101;48.658;2.328;2023-12-22T12:11:19;9.20;;;1.58;;
70549;SDS011;58101;48.658;2.328;2023-12-22T12:13:46;11.30;;;2.00;;
70549;SDS011;58101;48.658;2.328;2023-12-22T12:16:12;12.95;;;2.17;;
70549;SDS011;58101;48.658;2.328;2023-12-22T12:18:40;11.88;;;1.95;;
70549;SDS011;58101;48.658;2.328;2023-12-22T12:21:06;9.43;;;1.63;;
70549;SDS011;58101;48.658;2.328;2023-12-22T12:23:33;9.70;;;2.40;;
70549;SDS011;58101;48.658;2.328;2023-12-22T12:25:59;13.35;;;2.38;;
70549;SDS011;58101;48.658;2.328;2023-12-22T12:28:29;12.77;;;2.30;;
70549;SDS011;58101;48.658;2.328;2023-12-22T12:30:59;9.57;;;1.38;;
70549;SDS011;58101;48.658;2.328;2023-12-22T12:33:27;8.25;;;1.20;;
70549;SDS011;58101;48.658;2.328;2023-12-22T12:35:57;8.75;;;1.67;;
70549;SDS011;58101;48.658;2.328;2023-12-22T12:41:18;11.13;;;1.63;;
70549;SDS011;58101;48.658;2.328;2023-12-22T12:43:55;15.10;;;2.17;;
70549;SDS011;58101;48.658;2.328;2023-12-22T12:46:22;9.68;;;2.25;;
70549;SDS011;58101;48.658;2.328;2023-12-22T12:48:48;14.23;;;1.92;;
70549;SDS011;58101;48.658;2.328;2023-12-22T12:51:27;13.55;;;1.75;;
70549;SDS011;58101;48.658;2.328;2023-12-22T12:53:52;11.00;;;2.05;;
70549;SDS011;58101;48.658;2.328;2023-12-22T12:56:18;11.82;;;1.85;;
70549;SDS011;58101;48.658;2.328;2023-12-22T12:58:44;11.60;;;1.88;;
70549;SDS011;58101;48.658;2.328;2023-12-22T13:01:10;12.48;;;2.38;;
70549;SDS011;58101;48.658;2.328;2023-12-22T13:03:54;12.38;;;2.88;;
70549;SDS011;58101;48.658;2.328;2023-12-22T13:06:21;14.98;;;2.70;;
70549;SDS011;58101;48.658;2.328;2023-12-22T13:08:50;11.00;;;2.15;;
70549;SDS011;58101;48.658;2.328;2023-12-22T13:11:23;7.75;;;1.38;;
70549;SDS011;58101;48.658;2.328;2023-12-22T13:13:51;10.13;;;1.42;;
70549;SDS011;58101;48.658;2.328;2023-12-22T13:16:24;11.07;;;2.20;;
70549;SDS011;58101;48.658;2.328;2023-12-22T13:18:51;14.13;;;2.10;;
70549;SDS011;58101;48.658;2.328;2023-12-22T13:21:18;12.00;;;2.50;;
70549;SDS011;58101;48.658;2.328;2023-12-22T13:23:43;10.57;;;1.67;;
70549;SDS011;58101;48.658;2.328;2023-12-22T13:26:19;10.80;;;1.30;;
70549;SDS011;58101;48.658;2.328;2023-12-22T13:28:45;11.43;;;1.40;;
70549;SDS011;58101;48.658;2.328;2023-12-22T13:31:11;13.20;;;1.65;;
70549;SDS011;58101;48.658;2.328;2023-12-22T13:33:39;14.18;;;1.73;;
70549;SDS011;58101;48.658;2.328;2023-12-22T13:36:05;12.02;;;1.63;;
70549;SDS011;58101;48.658;2.328;2023-12-22T13:38:31;10.68;;;1.40;;
70549;SDS011;58101;48.658;2.328;2023-12-22T13:40:58;9.30;;;1.73;;
70549;SDS011;58101;48.658;2.328;2023-12-22T13:43:29;8.52;;;1.30;;
70549;SDS011;58101;48.658;2.328;2023-12-22T13:45:55;9.90;;;1.30;;
70549;SDS011;58101;48.658;2.328;2023-12-22T13:48:22;9.18;;;1.33;;
70549;SDS011;58101;48.658;2.328;2023-12-22T13:50:59;12.55;;;1.33;;
70549;SDS011;58101;48.658;2.328;2023-12-22T13:53:26;7.80;;;1.20;;
70549;SDS011;58101;48.658;2.328;2023-12-22T13:55:55;9.80;;;1.23;;
70549;SDS011;58101;48.658;2.328;2023-12-22T13:58:21;11.95;;;1.85;;
70549;SDS011;58101;48.658;2.328;2023-12-22T14:00:47;10.93;;;1.70;;
70549;SDS011;58101;48.658;2.328;2023-12-22T14:03:13;9.93;;;1.50;;
70549;SDS011;58101;48.658;2.328;2023-12-22T14:05:41;9.93;;;1.55;;
70549;SDS011;58101;48.658;2.328;2023-12-22T14:08:07;7.97;;;1.30;;
70549;SDS011;58101;48.658;2.328;2023-12-22T14:10:33;10.38;;;1.48;;
70549;SDS011;58101;48.658;2.328;2023-12-22T14:12:59;12.13;;;1.50;;
70549;SDS011;58101;48.658;2.328;2023-12-22T14:15:25;13.77;;;2.13;;
70549;SDS011;58101;48.658;2.328;2023-12-22T14:17:54;9.77;;;1.20;;
70549;SDS011;58101;48.658;2.328;2023-12-22T14:20:20;11.32;;;1.33;;
70549;SDS011;58101;48.658;2.328;2023-12-22T14:22:46;10.80;;;1.33;;
70549;SDS011;58101;48.658;2.328;2023-12-22T14:25:12;10.63;;;1.65;;
70549;SDS011;58101;48.658;2.328;2023-12-22T14:27:37;12.23;;;1.75;;
70549;SDS011;58101;48.658;2.328;2023-12-22T14:30:03;10.85;;;1.85;;
70549;SDS011;58101;48.658;2.328;2023-12-22T14:32:29;8.80;;;1.20;;
70549;SDS011;58101;48.658;2.328;2023-12-22T14:34:55;10.52;;;1.42;;
70549;SDS011;58101;48.658;2.328;2023-12-22T14:37:21;8.55;;;1.40;;
70549;SDS011;58101;48.658;2.328;2023-12-22T14:39:47;9.27;;;1.38;;
70549;SDS011;58101;48.658;2.328;2023-12-22T14:42:13;11.05;;;1.70;;
70549;SDS011;58101;48.658;2.328;2023-12-22T14:44:41;14.25;;;1.58;;
70549;SDS011;58101;48.658;2.328;2023-12-22T14:47:07;12.63;;;1.60;;
70549;SDS011;58101;48.658;2.328;2023-12-22T14:49:32;11.82;;;1.63;;
70549;SDS011;58101;48.658;2.328;2023-12-22T14:51:58;10.38;;;1.40;;
70549;SDS011;58101;48.658;2.328;2023-12-22T14:54:25;12.65;;;1.92;;
70549;SDS011;58101;48.658;2.328;2023-12-22T14:56:51;10.77;;;1.67;;
70549;SDS011;58101;48.658;2.328;2023-12-22T14:59:16;13.85;;;1.58;;
70549;SDS011;58101;48.658;2.328;2023-12-22T15:01:42;16.33;;;1.73;;
70549;SDS011;58101;48.658;2.328;2023-12-22T15:04:11;13.15;;;2.00;;
70549;SDS011;58101;48.658;2.328;2023-12-22T15:06:40;14.77;;;1.70;;